Brightway — 9V8755 — position and weather

sailwx.info

Track history (hours):
 
Tides and Currents Weather Stations Pressure Air Temp Water Temp Dewpoint Dewpoint Depression Visibility Wind Speed Wind Dir Waves Ship Positions

Brightway

Last reported at 2015-Jun-14 19:31 UTC. Time now 2015-Jul-05 12:50 UTC.
Position N 27°28' W 015°15'.
Warning: this ship's position is 20 days out of date.

Length 274 m; draft 9.5 m.

Type: Tanker. MMSI: 566422000.

Date/timePositionNaut miles runAvg speedWind from/ knotsBaromVisibWave heightAir tempDewpointWater temp
2015-Jun-14 19:31N 27°28' W 015°15'1212.1
2015-Jun-14 18:33N 27°40' W 015°15'1312.6
2015-Jun-14 17:33N 27°52' W 015°15'1111.4
2015-Jun-14 16:33N 28°03' W 015°19'6 6.0
2015-Jun-14 15:32N 28°08' W 015°24'0 0.1
2015-Jun-14 14:32N 28°08' W 015°24'0 0.0
2015-Jun-14 13:23N 28°08' W 015°24'0 0.0
2015-Jun-14 12:23N 28°08' W 015°24'0 0.0
2015-Jun-14 11:26N 28°08' W 015°24'0 0.1
2015-Jun-14 10:26N 28°08' W 015°24'0 0.0
2015-Jun-14 09:26N 28°08' W 015°24'0 0.0
2015-Jun-14 08:29N 28°08' W 015°24'0 0.0
2015-Jun-14 07:26N 28°08' W 015°24'0 0.2
2015-Jun-14 06:33N 28°07' W 015°23'4 4.0
2015-Jun-14 05:33N 28°10' W 015°20'6 6.4
2015-Jun-14 04:33N 28°15' W 015°15'1010.3
2015-Jun-14 03:33N 28°25' W 015°11'1111.3
2015-Jun-14 02:33N 28°35' W 015°07'1111.2
2015-Jun-14 01:33N 28°46' W 015°03'1211.8
2015-Jun-14 00:33N 28°57' W 014°59'1211.5
2015-Jun-13 23:31N 29°09' W 014°55'1111.4
2015-Jun-13 22:31N 29°19' W 014°51'1211.4
2015-Jun-13 21:28N 29°31' W 014°47'1412.1
2015-Jun-13 20:19N 29°44' W 014°41'  
2015-Jun-10 07:28N 43°51' W 006°05'1112.2
2015-Jun-10 06:33N 43°51' W 005°49'1312.7
2015-Jun-10 05:33N 43°50' W 005°32'1312.9
2015-Jun-10 04:33N 43°48' W 005°14'1312.7
2015-Jun-10 03:33N 43°48' W 004°56'1612.6
2015-Jun-10 02:19N 43°46' W 004°35'5912.2
2015-Jun-09 21:29N 43°30' W 003°17'  
2015-Jun-07 10:29N 43°47' W 004°41'1111.2
2015-Jun-07 09:31N 43°47' W 004°56'1111.1
2015-Jun-07 08:32N 43°48' W 005°11'1212.0
2015-Jun-07 07:32N 43°50' W 005°27'1111.4
2015-Jun-07 06:33N 43°51' W 005°43'1110.5
2015-Jun-07 05:32N 43°52' W 005°57'1010.3
2015-Jun-07 04:33N 43°53' W 006°11'278 7.3
2015-Jun-05 14:33N 40°12' W 009°57'1110.7
2015-Jun-05 13:33N 40°01' W 009°57'1111.2
2015-Jun-05 12:33N 39°50' W 009°57'1110.9
2015-Jun-05 11:32N 39°39' W 009°56'1110.8
2015-Jun-05 10:33N 39°28' W 009°57'1110.5
2015-Jun-05 09:33N 39°18' W 009°56'1010.4
2015-Jun-05 08:33N 39°07' W 009°58'1110.6
2015-Jun-05 07:33N 38°57' W 009°58'1010.4
2015-Jun-05 06:33N 38°46' W 009°57'1111.0
2015-Jun-05 05:33N 38°36' W 009°54'1110.8
2015-Jun-05 04:33N 38°25' W 009°51'1110.5
2015-Jun-05 03:33N 38°15' W 009°48'1010.4
2015-Jun-05 02:33N 38°05' W 009°46'1110.8
2015-Jun-05 01:33N 37°54' W 009°42'1110.7
2015-Jun-05 00:33N 37°44' W 009°39'1010.4
2015-Jun-04 23:33N 37°33' W 009°37'1010.3
2015-Jun-04 22:33N 37°23' W 009°34'1010.1
2015-Jun-04 21:33N 37°13' W 009°31'1010.2
2015-Jun-04 20:33N 37°04' W 009°28'1010.0
2015-Jun-04 19:33N 36°54' W 009°25'  
Track history (hours):
 
Tides and Currents Weather Stations Pressure Air Temp Water Temp Dewpoint Dewpoint Depression Visibility Wind Speed Wind Dir Waves Ship Positions

Brightway

Last reported at 2015-Jun-14 19:31 UTC. Time now 2015-Jul-05 12:50 UTC.
Position N 27°28' W 015°15'.
Warning: this ship's position is 20 days out of date.

Length 274 m; draft 9.5 m.

Type: Tanker. MMSI: 566422000.

Date/timePositionNaut miles runAvg speedWind from/ knotsBaromVisibWave heightAir tempDewpointWater temp
2015-Jun-14 19:31N 27°28' W 015°15'1212.1
2015-Jun-14 18:33N 27°40' W 015°15'1312.6
2015-Jun-14 17:33N 27°52' W 015°15'1111.4
2015-Jun-14 16:33N 28°03' W 015°19'6 6.0
2015-Jun-14 15:32N 28°08' W 015°24'0 0.1
2015-Jun-14 14:32N 28°08' W 015°24'0 0.0
2015-Jun-14 13:23N 28°08' W 015°24'0 0.0
2015-Jun-14 12:23N 28°08' W 015°24'0 0.0
2015-Jun-14 11:26N 28°08' W 015°24'0 0.1
2015-Jun-14 10:26N 28°08' W 015°24'0 0.0
2015-Jun-14 09:26N 28°08' W 015°24'0 0.0
2015-Jun-14 08:29N 28°08' W 015°24'0 0.0
2015-Jun-14 07:26N 28°08' W 015°24'0 0.2
2015-Jun-14 06:33N 28°07' W 015°23'4 4.0
2015-Jun-14 05:33N 28°10' W 015°20'6 6.4
2015-Jun-14 04:33N 28°15' W 015°15'1010.3
2015-Jun-14 03:33N 28°25' W 015°11'1111.3
2015-Jun-14 02:33N 28°35' W 015°07'1111.2
2015-Jun-14 01:33N 28°46' W 015°03'1211.8
2015-Jun-14 00:33N 28°57' W 014°59'1211.5
2015-Jun-13 23:31N 29°09' W 014°55'1111.4
2015-Jun-13 22:31N 29°19' W 014°51'1211.4
2015-Jun-13 21:28N 29°31' W 014°47'1412.1
2015-Jun-13 20:19N 29°44' W 014°41'  
2015-Jun-10 07:28N 43°51' W 006°05'1112.2
2015-Jun-10 06:33N 43°51' W 005°49'1312.7
2015-Jun-10 05:33N 43°50' W 005°32'1312.9
2015-Jun-10 04:33N 43°48' W 005°14'1312.7
2015-Jun-10 03:33N 43°48' W 004°56'1612.6
2015-Jun-10 02:19N 43°46' W 004°35'5912.2
2015-Jun-09 21:29N 43°30' W 003°17'  
2015-Jun-07 10:29N 43°47' W 004°41'1111.2
2015-Jun-07 09:31N 43°47' W 004°56'1111.1
2015-Jun-07 08:32N 43°48' W 005°11'1212.0
2015-Jun-07 07:32N 43°50' W 005°27'1111.4
2015-Jun-07 06:33N 43°51' W 005°43'1110.5
2015-Jun-07 05:32N 43°52' W 005°57'1010.3
2015-Jun-07 04:33N 43°53' W 006°11'278 7.3
2015-Jun-05 14:33N 40°12' W 009°57'1110.7
2015-Jun-05 13:33N 40°01' W 009°57'1111.2
2015-Jun-05 12:33N 39°50' W 009°57'1110.9
2015-Jun-05 11:32N 39°39' W 009°56'1110.8
2015-Jun-05 10:33N 39°28' W 009°57'1110.5
2015-Jun-05 09:33N 39°18' W 009°56'1010.4
2015-Jun-05 08:33N 39°07' W 009°58'1110.6
2015-Jun-05 07:33N 38°57' W 009°58'1010.4
2015-Jun-05 06:33N 38°46' W 009°57'1111.0
2015-Jun-05 05:33N 38°36' W 009°54'1110.8
2015-Jun-05 04:33N 38°25' W 009°51'1110.5
2015-Jun-05 03:33N 38°15' W 009°48'1010.4
2015-Jun-05 02:33N 38°05' W 009°46'1110.8
2015-Jun-05 01:33N 37°54' W 009°42'1110.7
2015-Jun-05 00:33N 37°44' W 009°39'1010.4
2015-Jun-04 23:33N 37°33' W 009°37'1010.3
2015-Jun-04 22:33N 37°23' W 009°34'1010.1
2015-Jun-04 21:33N 37°13' W 009°31'1010.2
2015-Jun-04 20:33N 37°04' W 009°28'1010.0
2015-Jun-04 19:33N 36°54' W 009°25'  

Dump ship's entire track history